createdAt,value
2022-09-27T00:00:33.897Z,7.95
2022-09-27T00:03:26.246Z,7.92
2022-09-27T00:06:07.828Z,7.91
2022-09-27T00:08:41.355Z,7.89
2022-09-27T00:11:21.536Z,7.86
2022-09-27T00:13:55.832Z,7.83
2022-09-27T00:16:31.720Z,7.80
2022-09-27T00:19:06.180Z,7.79
2022-09-27T00:21:39.482Z,7.79
2022-09-27T00:24:17.681Z,7.79
2022-09-27T00:26:51.322Z,7.79
2022-09-27T00:29:24.191Z,7.78
2022-09-27T00:31:57.003Z,7.75
2022-09-27T00:34:29.809Z,7.70
2022-09-27T00:37:02.435Z,7.66
2022-09-27T00:39:36.078Z,7.62
2022-09-27T00:42:13.379Z,7.58
2022-09-27T00:45:02.683Z,7.54
2022-09-27T00:47:42.367Z,7.51
2022-09-27T00:50:28.213Z,7.49
2022-09-27T00:53:14.154Z,7.46
2022-09-27T00:55:51.874Z,7.45
2022-09-27T00:58:32.278Z,7.41
2022-09-27T01:01:11.508Z,7.40
2022-09-27T01:03:50.380Z,7.37
2022-09-27T01:06:25.605Z,7.35
2022-09-27T01:08:58.056Z,7.33
2022-09-27T01:11:44.378Z,7.31
2022-09-27T01:14:53.203Z,7.28
2022-09-27T01:17:40.751Z,7.24
2022-09-27T01:20:35.263Z,7.20
2022-09-27T01:23:34.550Z,7.18
2022-09-27T01:26:18.391Z,7.18
2022-09-27T01:29:01.618Z,7.17
2022-09-27T01:31:41.595Z,7.16
2022-09-27T01:34:24.838Z,7.16
2022-09-27T01:37:07.317Z,7.16
2022-09-27T01:39:48.858Z,7.17
2022-09-27T01:42:41.947Z,7.19
2022-09-27T01:45:21.505Z,7.22
2022-09-27T01:48:03.278Z,7.26
2022-09-27T01:51:05.625Z,7.27
2022-09-27T01:53:42.325Z,7.31
2022-09-27T01:56:33.026Z,7.35
2022-09-27T01:59:17.299Z,7.37
2022-09-27T02:01:59.519Z,7.38
2022-09-27T02:04:40.293Z,7.39
2022-09-27T02:07:24.600Z,7.38
2022-09-27T02:10:03.661Z,7.38
2022-09-27T02:12:53.820Z,7.36
2022-09-27T02:15:33.489Z,7.33
2022-09-27T02:18:31.238Z,7.33
2022-09-27T02:21:02.883Z,7.34
2022-09-27T02:23:41.585Z,7.31
2022-09-27T02:26:22.279Z,7.28
2022-09-27T02:29:02.421Z,7.27
2022-09-27T02:31:41.798Z,7.26
2022-09-27T02:34:20.212Z,7.23
2022-09-27T02:36:53.592Z,7.19
2022-09-27T02:39:27.520Z,7.15
2022-09-27T02:42:06.875Z,7.13
2022-09-27T02:44:40.957Z,7.10
2022-09-27T02:47:35.921Z,7.09
2022-09-27T02:50:29.441Z,7.07
2022-09-27T02:53:31.544Z,7.04
2022-09-27T02:56:17.978Z,7.02
2022-09-27T02:59:19.510Z,6.99
2022-09-27T03:02:18.214Z,6.95
2022-09-27T03:05:07.240Z,6.93
2022-09-27T03:07:40.367Z,6.92
2022-09-27T03:10:19.815Z,6.91
2022-09-27T03:12:53.511Z,6.90
2022-09-27T03:15:26.261Z,6.89
2022-09-27T03:18:08.093Z,6.88
2022-09-27T03:20:59.175Z,6.87
2022-09-27T03:23:32.349Z,6.86
2022-09-27T03:26:12.725Z,6.84
2022-09-27T03:28:46.175Z,6.82
2022-09-27T03:31:18.625Z,6.81
2022-09-27T03:34:15.133Z,6.79
2022-09-27T03:36:50.711Z,6.77
2022-09-27T03:39:23.500Z,6.76
2022-09-27T03:41:56.092Z,6.75
2022-09-27T03:44:28.459Z,6.75
2022-09-27T03:47:03.304Z,6.76
2022-09-27T03:49:41.029Z,6.77
2022-09-27T03:52:17.791Z,6.77
2022-09-27T03:54:50.407Z,6.77
2022-09-27T03:57:26.184Z,6.78
2022-09-27T04:00:00.005Z,6.78
2022-09-27T04:02:47.950Z,6.81
2022-09-27T04:05:30.145Z,6.83
2022-09-27T04:08:10.718Z,6.85
2022-09-27T04:10:45.336Z,6.88
2022-09-27T04:13:18.203Z,6.88
2022-09-27T04:15:57.914Z,6.89
2022-09-27T04:19:08.941Z,6.87
2022-09-27T04:22:06.387Z,6.86
2022-09-27T04:24:40.925Z,6.83
2022-09-27T04:27:29.306Z,6.84
2022-09-27T04:30:06.438Z,6.84
2022-09-27T04:32:59.411Z,6.82
2022-09-27T04:36:11.213Z,6.81
2022-09-27T04:38:48.193Z,6.82
2022-09-27T04:41:29.978Z,6.84
2022-09-27T04:44:02.714Z,6.88
2022-09-27T04:46:37.089Z,6.92
2022-09-27T04:49:09.811Z,6.94
2022-09-27T04:51:42.969Z,6.97
2022-09-27T04:54:16.391Z,7.00
2022-09-27T04:57:12.392Z,7.04
2022-09-27T04:59:45.613Z,7.07
2022-09-27T05:02:18.923Z,7.10
2022-09-27T05:05:14.696Z,7.13
2022-09-27T05:07:47.997Z,7.15
2022-09-27T05:10:30.714Z,7.16
2022-09-27T05:13:03.249Z,7.17
2022-09-27T05:15:36.447Z,7.21
2022-09-27T05:18:50.547Z,7.23
2022-09-27T05:21:45.859Z,7.27
2022-09-27T05:24:18.718Z,7.31
2022-09-27T05:26:54.915Z,7.35
2022-09-27T05:29:27.674Z,7.38
2022-09-27T05:32:23.797Z,7.45
2022-09-27T05:35:04.283Z,7.53
2022-09-27T05:37:41.328Z,7.61
2022-09-27T05:40:36.630Z,7.69
2022-09-27T05:43:09.846Z,7.82
2022-09-27T05:45:44.355Z,7.95
2022-09-27T05:48:17.397Z,8.08
2022-09-27T05:51:02.077Z,8.23
2022-09-27T05:53:37.485Z,8.37
2022-09-27T05:56:15.192Z,8.48
2022-09-27T05:59:16.689Z,8.62
2022-09-27T06:02:08.016Z,8.75
2022-09-27T06:05:01.015Z,8.87
2022-09-27T06:08:01.759Z,8.98
2022-09-27T06:10:40.111Z,9.13
2022-09-27T06:13:15.325Z,9.30
2022-09-27T06:15:50.968Z,9.51
2022-09-27T06:18:23.917Z,9.74
2022-09-27T06:20:56.784Z,10.15
2022-09-27T06:23:29.293Z,10.67
2022-09-27T06:26:06.395Z,11.15
2022-09-27T06:28:51.262Z,11.78
2022-09-27T06:31:29.012Z,12.36
2022-09-27T06:34:14.014Z,12.92
2022-09-27T06:36:49.436Z,13.31
2022-09-27T06:39:23.759Z,13.32
2022-09-27T06:42:02.751Z,13.23
2022-09-27T06:44:54.423Z,13.19
2022-09-27T06:47:30.207Z,13.15
2022-09-27T06:50:21.632Z,13.09
2022-09-27T06:52:53.906Z,13.09
2022-09-27T06:55:26.254Z,13.10
2022-09-27T06:58:17.027Z,13.11
2022-09-27T07:01:09.190Z,13.16
2022-09-27T07:04:00.121Z,13.22
2022-09-27T07:06:58.296Z,13.37
2022-09-27T07:09:34.817Z,13.64
2022-09-27T07:12:07.494Z,14.00
2022-09-27T07:14:40.245Z,14.30
2022-09-27T07:17:17.154Z,14.33
2022-09-27T07:19:51.910Z,14.31
2022-09-27T07:22:24.679Z,14.26
2022-09-27T07:25:01.512Z,14.27
2022-09-27T07:27:38.376Z,14.53
2022-09-27T07:30:16.521Z,14.90
2022-09-27T07:32:48.992Z,15.18
2022-09-27T07:35:24.599Z,15.50
2022-09-27T07:37:58.977Z,15.97
2022-09-27T07:40:31.292Z,16.54
2022-09-27T07:43:04.120Z,17.26
2022-09-27T07:45:36.878Z,17.96
2022-09-27T07:48:29.931Z,18.28
2022-09-27T07:51:27.211Z,18.06
2022-09-27T07:54:10.585Z,17.77
2022-09-27T07:57:00.882Z,17.80
2022-09-27T07:59:33.750Z,18.21
2022-09-27T08:02:06.880Z,18.91
2022-09-27T08:04:39.903Z,19.63
2022-09-27T08:07:14.470Z,20.08
2022-09-27T08:09:49.190Z,20.63
2022-09-27T08:12:22.601Z,20.96
2022-09-27T08:15:00.543Z,21.06
2022-09-27T08:17:34.004Z,21.01
2022-09-27T08:20:29.050Z,20.93
2022-09-27T08:23:13.026Z,20.87
2022-09-27T08:25:55.660Z,20.90
2022-09-27T08:28:40.943Z,21.01
2022-09-27T08:31:25.516Z,21.22
2022-09-27T08:34:00.914Z,21.10
2022-09-27T08:36:36.474Z,21.12
2022-09-27T08:39:11.775Z,21.16
2022-09-27T08:41:56.523Z,21.40
2022-09-27T08:44:36.409Z,22.22
2022-09-27T08:47:18.778Z,23.23
2022-09-27T08:49:56.518Z,24.40
2022-09-27T08:52:34.841Z,25.43
2022-09-27T08:55:24.184Z,26.43
2022-09-27T08:57:59.869Z,26.62
2022-09-27T09:00:33.553Z,26.31
2022-09-27T09:03:05.830Z,26.54
2022-09-27T09:05:41.290Z,27.56
2022-09-27T09:08:32.278Z,28.30
2022-09-27T09:11:34.883Z,27.92
2022-09-27T09:14:30.622Z,27.13
2022-09-27T09:17:17.697Z,26.92
2022-09-27T09:20:37.328Z,27.61
2022-09-27T09:23:43.990Z,28.05
2022-09-27T09:26:26.165Z,28.87
2022-09-27T09:29:11.553Z,29.24
2022-09-27T09:31:53.411Z,29.56
2022-09-27T09:34:30.402Z,29.71
2022-09-27T09:37:07.181Z,29.37
2022-09-27T09:39:45.841Z,28.98
2022-09-27T09:42:27.054Z,27.52
2022-09-27T09:45:05.731Z,26.19
2022-09-27T09:47:43.213Z,25.27
2022-09-27T09:50:22.016Z,24.53
2022-09-27T09:53:00.692Z,23.88
2022-09-27T09:55:36.304Z,23.38
2022-09-27T09:58:22.847Z,23.01
2022-09-27T10:01:12.041Z,22.50
2022-09-27T10:03:47.962Z,22.06
2022-09-27T10:06:21.900Z,21.73
2022-09-27T10:08:55.926Z,21.49
2022-09-27T10:11:41.287Z,21.13
2022-09-27T10:14:20.067Z,20.90
2022-09-27T10:16:58.890Z,20.65
2022-09-27T10:19:34.413Z,20.44
2022-09-27T10:22:18.416Z,20.33
2022-09-27T10:25:01.959Z,20.18
2022-09-27T10:28:05.502Z,19.98
2022-09-27T10:30:39.022Z,19.84
2022-09-27T10:33:20.169Z,19.72
2022-09-27T10:36:26.514Z,19.58
2022-09-27T10:39:01.733Z,19.54
2022-09-27T10:41:41.604Z,19.51
2022-09-27T10:44:43.125Z,19.42
2022-09-27T10:47:39.416Z,19.39
2022-09-27T10:50:58.921Z,19.38
2022-09-27T10:53:55.709Z,19.31
2022-09-27T10:56:36.491Z,19.25
2022-09-27T10:59:20.976Z,19.20
2022-09-27T11:01:54.003Z,19.13
2022-09-27T11:04:40.175Z,19.02
2022-09-27T11:07:20.435Z,18.97
2022-09-27T11:10:22.855Z,18.81
2022-09-27T11:16:11.065Z,18.64
2022-09-27T11:18:48.058Z,18.64
2022-09-27T11:21:31.953Z,18.63
2022-09-27T11:24:30.536Z,18.56
2022-09-27T11:27:18.477Z,18.48
2022-09-27T11:30:04.759Z,18.45
2022-09-27T11:33:22.138Z,18.42
2022-09-27T11:36:05.382Z,18.39
2022-09-27T11:38:53.283Z,18.38
2022-09-27T11:41:40.477Z,18.35
2022-09-27T11:44:31.737Z,18.33
2022-09-27T11:47:17.372Z,18.32
2022-09-27T11:50:11.722Z,18.33
2022-09-27T11:52:58.643Z,18.30
2022-09-27T11:55:43.964Z,18.25
2022-09-27T11:58:27.953Z,18.15
2022-09-27T12:01:17.576Z,18.06
2022-09-27T12:04:08.642Z,18.00
2022-09-27T12:06:50.994Z,17.97
2022-09-27T12:09:27.298Z,17.95
2022-09-27T12:12:05.856Z,17.91
2022-09-27T12:14:42.086Z,17.85
2022-09-27T12:17:19.025Z,17.83
2022-09-27T12:19:56.080Z,17.85
2022-09-27T12:23:00.037Z,17.82
2022-09-27T12:25:46.911Z,17.86
2022-09-27T12:28:34.779Z,17.90
2022-09-27T12:31:34.787Z,17.93
2022-09-27T12:34:19.769Z,17.94
2022-09-27T12:37:00.951Z,17.89
2022-09-27T12:39:47.289Z,17.88
2022-09-27T12:42:31.334Z,17.89
2022-09-27T12:45:06.702Z,17.89
2022-09-27T12:47:58.042Z,17.90
2022-09-27T12:50:38.051Z,17.90
2022-09-27T12:53:20.122Z,17.95
2022-09-27T12:56:16.131Z,17.96
2022-09-27T12:59:26.475Z,17.96
2022-09-27T13:02:23.239Z,17.91
2022-09-27T13:05:15.376Z,17.88
2022-09-27T13:07:57.847Z,17.84
2022-09-27T13:10:58.537Z,17.80
2022-09-27T13:19:18.098Z,17.56
2022-09-27T13:31:05.494Z,17.16
2022-09-27T14:02:21.059Z,16.28
2022-09-27T14:13:43.968Z,15.91
2022-09-27T14:16:39.827Z,15.72
2022-09-27T14:25:04.944Z,15.20
2022-09-27T14:28:50.212Z,15.09
2022-09-27T14:40:44.712Z,14.90
2022-09-27T14:48:56.665Z,14.87
2022-09-27T14:51:31.886Z,14.83
2022-09-27T14:58:35.965Z,14.73
2022-09-27T15:05:21.093Z,14.63
2022-09-27T15:13:18.506Z,14.54
2022-09-27T15:16:39.456Z,14.46
2022-09-27T15:19:35.997Z,14.46
2022-09-27T15:31:11.679Z,14.40
2022-09-27T15:38:39.666Z,14.26
2022-09-27T15:50:21.298Z,14.17
2022-09-27T15:56:52.232Z,14.12
2022-09-27T16:18:00.914Z,13.84
2022-09-27T16:25:28.143Z,13.81
2022-09-27T16:28:55.910Z,13.80
2022-09-27T16:36:43.640Z,13.66
2022-09-27T16:39:25.140Z,13.63
2022-09-27T17:04:56.135Z,13.24
2022-09-27T17:07:35.683Z,13.22
2022-09-27T17:14:36.103Z,13.16
2022-09-27T17:22:47.577Z,13.14
2022-09-27T17:25:22.522Z,13.12
2022-09-27T17:28:01.192Z,13.08
2022-09-27T17:30:35.126Z,13.05
2022-09-27T17:33:14.850Z,13.04
2022-09-27T17:35:47.969Z,13.02
2022-09-27T17:38:28.086Z,12.99
2022-09-27T17:45:35.322Z,12.93
2022-09-27T17:53:04.532Z,12.93
2022-09-27T17:55:40.134Z,12.92
2022-09-27T17:59:08.883Z,12.91
2022-09-27T18:06:34.129Z,12.89
2022-09-27T18:09:14.839Z,12.87
2022-09-27T18:30:12.173Z,12.63
2022-09-27T18:33:55.167Z,12.62
2022-09-27T18:40:58.973Z,12.61
2022-09-27T18:43:35.351Z,12.61
2022-09-27T18:47:05.874Z,12.62
2022-09-27T18:49:40.973Z,12.62
2022-09-27T18:53:09.061Z,12.62
2022-09-27T19:00:32.940Z,12.60
2022-09-27T19:15:28.432Z,12.48
2022-09-27T19:18:07.058Z,12.48
2022-09-27T19:20:39.329Z,12.47
2022-09-27T19:31:13.472Z,12.38
2022-09-27T19:39:06.259Z,12.34
2022-09-27T19:41:45.828Z,12.33
2022-09-27T19:44:19.222Z,12.33
2022-09-27T19:46:57.979Z,12.34
2022-09-27T19:49:30.529Z,12.36
2022-09-27T19:52:50.043Z,12.35
2022-09-27T19:55:25.204Z,12.37
2022-09-27T19:58:47.228Z,12.38
2022-09-27T20:01:27.004Z,12.38
2022-09-27T20:08:48.979Z,12.34
2022-09-27T20:11:29.908Z,12.34
2022-09-27T20:14:20.106Z,12.31
2022-09-27T20:17:24.913Z,12.29
2022-09-27T20:19:57.018Z,12.28
2022-09-27T20:22:38.192Z,12.28
2022-09-27T20:48:26.991Z,12.11
2022-09-27T20:51:04.753Z,12.11
2022-09-27T20:54:33.287Z,12.10
2022-09-27T21:01:55.732Z,12.09
2022-09-27T21:04:33.928Z,12.09
2022-09-27T21:07:06.668Z,12.08
2022-09-27T21:09:45.002Z,12.09
2022-09-27T21:12:17.033Z,12.10
2022-09-27T21:14:58.050Z,12.09
2022-09-27T21:17:30.110Z,12.09
2022-09-27T21:20:10.633Z,12.11
2022-09-27T21:22:42.869Z,12.10
2022-09-27T21:25:23.527Z,12.10
2022-09-27T21:28:46.458Z,12.11
2022-09-27T21:31:27.230Z,12.12
2022-09-27T21:35:50.678Z,12.11
2022-09-27T21:38:32.886Z,12.09
2022-09-27T21:46:46.291Z,12.05
2022-09-27T21:49:25.047Z,12.03
2022-09-27T21:56:48.234Z,12.00
2022-09-27T21:59:27.133Z,11.98
2022-09-27T22:01:59.483Z,11.98
2022-09-27T22:04:38.447Z,11.97
2022-09-27T22:07:11.276Z,11.94
2022-09-27T22:09:50.075Z,11.91
2022-09-27T22:12:22.576Z,11.93
2022-09-27T22:15:01.058Z,11.92
2022-09-27T22:17:33.457Z,11.90
2022-09-27T22:25:17.824Z,11.80
2022-09-27T22:27:50.269Z,11.76
2022-09-27T22:30:29.429Z,11.73
2022-09-27T22:33:04.946Z,11.70
2022-09-27T22:40:48.921Z,11.62
2022-09-27T22:48:11.290Z,11.55
2022-09-27T22:50:50.171Z,11.54
2022-09-27T22:53:22.627Z,11.52
2022-09-27T22:56:04.477Z,11.49
2022-09-27T22:59:27.671Z,11.45
2022-09-27T23:02:08.342Z,11.42
2022-09-27T23:09:19.555Z,11.36
2022-09-27T23:11:52.789Z,11.31
2022-09-27T23:14:31.907Z,11.28
2022-09-27T23:17:04.595Z,11.25
2022-09-27T23:19:45.091Z,11.23
2022-09-27T23:22:15.637Z,11.18
2022-09-27T23:24:54.202Z,11.12
2022-09-27T23:31:31.509Z,11.03
2022-09-27T23:34:10.401Z,11.00
2022-09-27T23:36:42.468Z,10.94
2022-09-27T23:39:21.284Z,10.91
2022-09-27T23:51:19.285Z,10.88
2022-09-27T23:54:41.300Z,10.86
